createdAt,value
2022-07-28T00:01:05.810Z,0.50
2022-07-28T00:03:36.009Z,0.40
2022-07-28T00:06:06.559Z,0.50
2022-07-28T00:08:36.771Z,0.47
2022-07-28T00:11:07.120Z,0.40
2022-07-28T00:13:37.401Z,0.52
2022-07-28T00:16:08.999Z,0.52
2022-07-28T00:18:39.298Z,0.38
2022-07-28T00:21:10.132Z,0.65
2022-07-28T00:23:40.443Z,0.65
2022-07-28T00:26:13.698Z,0.80
2022-07-28T00:28:43.810Z,0.52
2022-07-28T00:31:14.228Z,0.60
2022-07-28T00:33:44.876Z,0.65
2022-07-28T00:36:15.083Z,0.65
2022-07-28T00:38:45.847Z,0.40
2022-07-28T00:41:21.859Z,0.40
2022-07-28T00:43:54.212Z,0.50
2022-07-28T00:46:26.085Z,0.73
2022-07-28T00:48:57.576Z,0.47
2022-07-28T00:51:29.208Z,0.38
2022-07-28T00:54:00.367Z,0.50
2022-07-28T00:56:31.147Z,0.52
2022-07-28T00:59:01.303Z,0.40
2022-07-28T01:01:31.593Z,1.02
2022-07-28T01:04:04.675Z,0.52
2022-07-28T01:06:43.502Z,0.55
2022-07-28T01:09:40.251Z,0.50
2022-07-28T01:12:40.124Z,0.45
2022-07-28T01:15:26.935Z,0.52
2022-07-28T01:18:15.269Z,0.40
2022-07-28T01:21:01.930Z,0.30
2022-07-28T01:23:34.870Z,0.30
2022-07-28T01:26:20.157Z,0.50
2022-07-28T01:28:50.359Z,0.28
2022-07-28T01:31:27.018Z,0.30
2022-07-28T01:34:05.749Z,0.38
2022-07-28T01:36:48.113Z,0.25
2022-07-28T01:39:19.487Z,0.47
2022-07-28T01:41:52.425Z,0.63
2022-07-28T01:44:26.435Z,0.50
2022-07-28T01:46:59.927Z,0.60
2022-07-28T01:49:32.612Z,0.43
2022-07-28T01:52:05.845Z,0.60
2022-07-28T01:54:41.066Z,0.20
2022-07-28T01:57:16.198Z,0.40
2022-07-28T01:59:47.603Z,0.30
2022-07-28T02:02:20.989Z,0.20
2022-07-28T02:04:52.954Z,0.30
2022-07-28T02:07:24.669Z,0.35
2022-07-28T02:09:57.290Z,0.40
2022-07-28T02:12:29.105Z,0.28
2022-07-28T02:15:00.537Z,0.28
2022-07-28T02:17:33.761Z,0.38
2022-07-28T02:20:06.941Z,0.28
2022-07-28T02:22:39.379Z,0.30
2022-07-28T02:25:10.801Z,0.77
2022-07-28T02:27:52.236Z,0.43
2022-07-28T02:31:05.344Z,0.52
2022-07-28T02:33:59.024Z,0.40
2022-07-28T02:36:34.089Z,0.52
2022-07-28T02:39:17.366Z,0.63
2022-07-28T02:41:50.081Z,0.60
2022-07-28T02:44:23.901Z,0.30
2022-07-28T02:46:57.331Z,0.45
2022-07-28T02:49:37.366Z,0.50
2022-07-28T02:52:10.110Z,0.30
2022-07-28T02:54:42.236Z,0.57
2022-07-28T02:57:14.649Z,0.43
2022-07-28T02:59:46.508Z,0.40
2022-07-28T03:02:17.333Z,0.40
2022-07-28T03:05:07.728Z,0.47
2022-07-28T03:07:50.656Z,0.63
2022-07-28T03:10:34.031Z,0.32
2022-07-28T03:13:08.411Z,0.30
2022-07-28T03:15:41.922Z,0.40
2022-07-28T03:18:12.220Z,0.30
2022-07-28T03:20:42.459Z,0.63
2022-07-28T03:23:13.190Z,0.35
2022-07-28T03:25:57.136Z,0.38
2022-07-28T03:28:29.008Z,0.30
2022-07-28T03:31:08.276Z,0.32
2022-07-28T03:33:38.922Z,0.20
2022-07-28T03:36:14.402Z,0.20
2022-07-28T03:39:01.403Z,0.30
2022-07-28T03:41:34.318Z,0.47
2022-07-28T03:44:05.352Z,0.20
2022-07-28T03:46:36.394Z,0.30
2022-07-28T03:49:10.728Z,0.20
2022-07-28T03:51:41.284Z,0.20
2022-07-28T03:54:11.911Z,0.30
2022-07-28T03:56:42.522Z,0.35
2022-07-28T03:59:13.075Z,0.43
2022-07-28T04:01:43.741Z,0.10
2022-07-28T04:04:17.932Z,0.10
2022-07-28T04:06:48.743Z,0.20
2022-07-28T04:09:19.591Z,0.20
2022-07-28T04:11:49.886Z,0.20
2022-07-28T04:14:20.478Z,0.10
2022-07-28T04:16:51.433Z,0.10
2022-07-28T04:19:21.671Z,0.10
2022-07-28T04:21:51.973Z,0.10
2022-07-28T04:24:22.392Z,0.20
2022-07-28T04:26:52.849Z,0.10
2022-07-28T04:29:27.523Z,0.20
2022-07-28T04:31:57.984Z,0.15
2022-07-28T04:34:28.254Z,0.17
2022-07-28T04:36:58.525Z,0.10
2022-07-28T04:39:28.801Z,0.20
2022-07-28T04:41:59.165Z,0.10
2022-07-28T04:44:29.603Z,0.10
2022-07-28T04:46:59.995Z,0.10
2022-07-28T04:49:30.216Z,0.15
2022-07-28T04:52:06.537Z,0.10
2022-07-28T04:54:38.430Z,0.20
2022-07-28T04:57:10.382Z,0.32
2022-07-28T04:59:43.246Z,0.10
2022-07-28T05:02:14.031Z,0.20
2022-07-28T05:04:45.411Z,0.20
2022-07-28T05:07:15.746Z,0.10
2022-07-28T05:09:46.160Z,0.10
2022-07-28T05:12:16.585Z,0.17
2022-07-28T05:14:46.802Z,0.30
2022-07-28T05:17:17.226Z,0.20
2022-07-28T05:19:47.404Z,0.10
2022-07-28T05:22:17.799Z,0.10
2022-07-28T05:24:48.059Z,0.00
2022-07-28T05:27:18.406Z,0.20
2022-07-28T05:29:48.660Z,0.20
2022-07-28T05:32:19.471Z,0.20
2022-07-28T05:34:49.802Z,0.25
2022-07-28T05:37:20.144Z,0.17
2022-07-28T05:39:50.336Z,0.10
2022-07-28T05:42:20.567Z,0.13
2022-07-28T05:44:50.808Z,0.30
2022-07-28T05:47:21.085Z,0.20
2022-07-28T05:49:51.353Z,0.20
2022-07-28T05:52:21.642Z,0.10
2022-07-28T05:54:51.918Z,0.17
2022-07-28T05:57:22.202Z,0.20
2022-07-28T05:59:55.292Z,0.20
2022-07-28T06:02:25.891Z,0.20
2022-07-28T06:04:56.318Z,0.10
2022-07-28T06:07:42.955Z,0.10
2022-07-28T06:10:16.119Z,0.20
2022-07-28T06:12:48.754Z,0.20
2022-07-28T06:15:24.179Z,0.10
2022-07-28T06:17:57.143Z,0.25
2022-07-28T06:20:29.440Z,0.20
2022-07-28T06:23:00.454Z,0.30
2022-07-28T06:25:33.043Z,0.20
2022-07-28T06:28:07.094Z,0.20
2022-07-28T06:30:37.329Z,0.10
2022-07-28T06:33:12.705Z,0.10
2022-07-28T06:35:48.482Z,0.10
2022-07-28T06:38:30.349Z,0.35
2022-07-28T06:41:01.809Z,0.20
2022-07-28T06:43:36.703Z,0.30
2022-07-28T06:46:10.049Z,0.25
2022-07-28T06:48:41.299Z,0.30
2022-07-28T06:51:11.535Z,0.40
2022-07-28T06:53:42.011Z,0.55
2022-07-28T06:56:13.845Z,0.40
2022-07-28T06:58:47.271Z,0.50
2022-07-28T07:01:18.561Z,0.60
2022-07-28T07:03:49.186Z,0.32
2022-07-28T07:06:19.436Z,0.60
2022-07-28T07:08:50.197Z,0.57
2022-07-28T07:11:20.549Z,0.50
2022-07-28T07:13:50.870Z,0.50
2022-07-28T07:16:21.503Z,0.45
2022-07-28T07:18:54.837Z,0.30
2022-07-28T07:21:25.059Z,0.60
2022-07-28T07:23:56.649Z,0.50
2022-07-28T07:26:27.137Z,0.38
2022-07-28T07:28:57.429Z,0.45
2022-07-28T07:31:27.752Z,0.63
2022-07-28T07:33:58.082Z,0.63
2022-07-28T07:36:28.334Z,0.77
2022-07-28T07:38:59.282Z,0.50
2022-07-28T07:41:29.547Z,0.30
2022-07-28T07:44:01.107Z,0.40
2022-07-28T07:46:31.419Z,0.30
2022-07-28T07:49:01.937Z,0.32
2022-07-28T07:51:32.205Z,0.40
2022-07-28T07:54:02.451Z,0.50
2022-07-28T07:56:32.612Z,0.60
2022-07-28T07:59:02.842Z,0.50
2022-07-28T08:01:33.211Z,0.50
2022-07-28T08:04:03.489Z,0.80
2022-07-28T08:06:33.718Z,0.60
2022-07-28T08:09:06.593Z,0.63
2022-07-28T08:11:36.789Z,1.02
2022-07-28T08:14:07.097Z,0.82
2022-07-28T08:16:37.498Z,0.68
2022-07-28T08:19:07.833Z,0.93
2022-07-28T08:21:39.497Z,0.80
2022-07-28T08:24:10.110Z,0.82
2022-07-28T08:26:40.720Z,0.90
2022-07-28T08:29:11.197Z,1.10
2022-07-28T08:31:41.470Z,1.23
2022-07-28T08:34:26.455Z,1.35
2022-07-28T08:37:02.912Z,1.30
2022-07-28T08:39:34.760Z,1.70
2022-07-28T08:42:54.379Z,2.20
2022-07-28T08:45:27.446Z,2.22
2022-07-28T08:48:09.680Z,3.17
2022-07-28T08:50:41.351Z,2.63
2022-07-28T08:53:11.696Z,3.00
2022-07-28T08:55:42.432Z,3.35
2022-07-28T08:58:15.595Z,2.78
2022-07-28T09:00:46.058Z,3.03
2022-07-28T09:03:16.544Z,3.25
2022-07-28T09:05:47.809Z,2.72
2022-07-28T09:08:29.294Z,2.80
2022-07-28T09:10:59.737Z,2.53
2022-07-28T09:13:30.069Z,2.17
2022-07-28T09:16:01.711Z,1.90
2022-07-28T09:18:32.058Z,1.73
2022-07-28T09:21:02.316Z,1.77
2022-07-28T09:23:50.466Z,1.90
2022-07-28T09:26:21.183Z,1.35
2022-07-28T09:28:52.385Z,1.63
2022-07-28T09:31:24.661Z,1.60
2022-07-28T09:34:06.143Z,1.17
2022-07-28T09:36:43.792Z,1.40
2022-07-28T09:39:14.111Z,1.35
2022-07-28T09:41:59.515Z,1.13
2022-07-28T09:44:30.759Z,1.20
2022-07-28T09:47:01.169Z,1.17
2022-07-28T09:49:45.384Z,1.17
2022-07-28T09:52:16.149Z,0.80
2022-07-28T09:55:03.372Z,1.13
2022-07-28T09:57:36.835Z,0.90
2022-07-28T10:00:13.631Z,0.88
2022-07-28T10:02:51.554Z,0.93
2022-07-28T10:05:22.063Z,0.95
2022-07-28T10:07:53.026Z,0.75
2022-07-28T10:10:24.836Z,0.85
2022-07-28T10:13:08.070Z,0.80
2022-07-28T10:15:56.568Z,0.80
2022-07-28T10:18:26.951Z,0.80
2022-07-28T10:20:57.846Z,0.70
2022-07-28T10:23:28.086Z,0.68
2022-07-28T10:26:00.994Z,0.90
2022-07-28T10:28:32.988Z,0.65
2022-07-28T10:31:06.151Z,0.70
2022-07-28T10:33:37.354Z,0.77
2022-07-28T10:36:08.591Z,0.70
2022-07-28T10:38:39.416Z,0.57
2022-07-28T10:41:11.602Z,0.70
2022-07-28T10:43:45.538Z,0.60
2022-07-28T10:46:17.793Z,0.70
2022-07-28T10:48:48.526Z,0.65
2022-07-28T10:51:18.996Z,0.50
2022-07-28T10:53:56.509Z,0.50
2022-07-28T10:57:04.984Z,0.60
2022-07-28T11:00:41.911Z,0.70
2022-07-28T11:03:48.845Z,0.55
2022-07-28T11:06:30.808Z,0.60
2022-07-28T11:09:21.950Z,0.55
2022-07-28T11:11:59.549Z,0.50
2022-07-28T11:14:38.132Z,0.60
2022-07-28T11:17:10.270Z,0.60
2022-07-28T11:19:55.869Z,0.50
2022-07-28T11:22:37.325Z,0.50
2022-07-28T11:25:19.109Z,0.40
2022-07-28T11:27:52.508Z,0.50
2022-07-28T11:30:35.241Z,0.40
2022-07-28T11:33:12.730Z,0.30
2022-07-28T11:35:43.018Z,0.40
2022-07-28T11:38:15.468Z,0.60
2022-07-28T11:40:53.624Z,0.50
2022-07-28T11:43:42.805Z,0.88
2022-07-28T11:46:31.831Z,0.50
2022-07-28T11:49:19.616Z,0.30
2022-07-28T11:52:11.292Z,0.50
2022-07-28T11:54:42.952Z,0.45
2022-07-28T11:57:13.966Z,0.40
2022-07-28T11:59:47.229Z,0.38
2022-07-28T12:02:22.120Z,0.40
2022-07-28T12:05:08.927Z,0.40
2022-07-28T12:07:42.773Z,0.52
2022-07-28T12:10:53.224Z,0.40
2022-07-28T12:13:27.626Z,0.43
2022-07-28T12:15:58.153Z,0.55
2022-07-28T12:18:28.597Z,0.50
2022-07-28T12:21:03.175Z,0.45
2022-07-28T12:23:45.813Z,0.38
2022-07-28T12:26:40.597Z,0.50
2022-07-28T12:29:20.391Z,0.45
2022-07-28T12:32:00.649Z,0.40
2022-07-28T12:34:32.670Z,0.50
2022-07-28T12:37:05.133Z,0.50
2022-07-28T12:39:38.531Z,0.52
2022-07-28T12:42:13.520Z,0.55
2022-07-28T12:44:46.017Z,0.70
2022-07-28T12:47:19.330Z,0.73
2022-07-28T12:49:58.193Z,0.68
2022-07-28T12:52:29.519Z,0.60
2022-07-28T12:55:00.268Z,0.70
2022-07-28T12:57:49.325Z,0.40
2022-07-28T13:00:24.518Z,0.50
2022-07-28T13:02:57.441Z,0.47
2022-07-28T13:05:57.779Z,0.52
2022-07-28T13:08:31.844Z,0.45
2022-07-28T13:11:03.271Z,0.40
2022-07-28T13:13:46.551Z,0.40
2022-07-28T13:16:21.916Z,0.50
2022-07-28T13:18:55.882Z,0.45
2022-07-28T13:21:57.268Z,0.50
2022-07-28T13:24:31.606Z,0.60
2022-07-28T13:27:04.107Z,0.38
2022-07-28T13:29:37.822Z,0.43
2022-07-28T13:32:08.447Z,0.70
2022-07-28T13:34:38.826Z,0.55
2022-07-28T13:37:09.141Z,0.50
2022-07-28T13:39:40.040Z,0.60
2022-07-28T13:42:10.795Z,0.40
2022-07-28T13:44:43.529Z,0.30
2022-07-28T13:47:16.628Z,0.50
2022-07-28T13:49:47.647Z,0.38
2022-07-28T13:52:32.703Z,0.40
2022-07-28T13:55:07.506Z,0.40
2022-07-28T13:57:43.042Z,0.50
2022-07-28T14:00:13.979Z,0.40
2022-07-28T14:02:44.627Z,0.50
2022-07-28T14:05:16.217Z,0.50
2022-07-28T14:07:48.355Z,0.45
2022-07-28T14:10:20.112Z,0.40
2022-07-28T14:12:57.329Z,0.60
2022-07-28T14:15:27.549Z,0.40
2022-07-28T14:17:58.377Z,0.50
2022-07-28T14:20:28.904Z,0.50
2022-07-28T14:23:00.122Z,0.38
2022-07-28T14:25:47.959Z,0.40
2022-07-28T14:28:19.627Z,0.40
2022-07-28T14:30:49.805Z,0.50
2022-07-28T14:33:20.516Z,0.50
2022-07-28T14:35:50.760Z,0.35
2022-07-28T14:38:51.877Z,0.40
2022-07-28T14:41:19.182Z,0.30
2022-07-28T14:43:49.920Z,0.40
2022-07-28T14:46:21.736Z,0.20
2022-07-28T14:48:52.388Z,0.50
2022-07-28T14:51:22.756Z,0.50
2022-07-28T14:53:53.361Z,0.50
2022-07-28T14:56:23.550Z,0.50
2022-07-28T14:58:53.903Z,0.50
2022-07-28T15:01:24.232Z,0.40
2022-07-28T15:03:54.678Z,0.43
2022-07-28T15:06:24.826Z,0.70
2022-07-28T15:08:57.237Z,0.43
2022-07-28T15:11:28.079Z,0.30
2022-07-28T15:13:58.459Z,0.30
2022-07-28T15:16:28.745Z,0.38
2022-07-28T15:18:58.995Z,0.40
2022-07-28T15:21:35.834Z,0.40
2022-07-28T15:24:07.082Z,0.40
2022-07-28T15:26:37.631Z,0.35
2022-07-28T15:29:08.732Z,0.43
2022-07-28T15:31:39.639Z,0.40
2022-07-28T15:34:11.072Z,0.40
2022-07-28T15:36:42.268Z,0.40
2022-07-28T15:39:15.862Z,0.40
2022-07-28T15:41:47.849Z,0.40
2022-07-28T15:44:21.775Z,0.50
2022-07-28T15:46:56.550Z,0.40
2022-07-28T15:49:29.149Z,0.30
2022-07-28T15:52:00.920Z,0.50
2022-07-28T15:54:31.444Z,0.60
2022-07-28T15:57:01.679Z,0.50
2022-07-28T15:59:49.475Z,0.50
2022-07-28T16:02:21.261Z,0.50
2022-07-28T16:04:54.039Z,0.50
2022-07-28T16:07:30.102Z,0.50
2022-07-28T16:10:01.634Z,0.68
2022-07-28T16:12:32.465Z,0.52
2022-07-28T16:15:02.675Z,0.47
2022-07-28T16:17:32.853Z,0.43
2022-07-28T16:20:04.682Z,0.70
2022-07-28T16:22:42.370Z,0.43
2022-07-28T16:25:18.084Z,0.50
2022-07-28T16:27:49.446Z,0.50
2022-07-28T16:30:21.341Z,0.55
2022-07-28T16:32:51.521Z,0.50
2022-07-28T16:35:21.879Z,0.50
2022-07-28T16:37:52.174Z,0.40
2022-07-28T16:40:22.516Z,0.32
2022-07-28T16:42:54.885Z,0.50
2022-07-28T16:45:25.163Z,0.55
2022-07-28T16:48:02.030Z,0.52
2022-07-28T16:50:35.433Z,0.60
2022-07-28T16:53:08.296Z,0.50
2022-07-28T16:55:38.547Z,0.43
2022-07-28T16:58:08.912Z,0.60
2022-07-28T17:00:39.206Z,0.52
2022-07-28T17:03:11.221Z,0.77
2022-07-28T17:05:41.463Z,0.60
2022-07-28T17:08:12.661Z,0.60
2022-07-28T17:10:42.954Z,0.63
2022-07-28T17:13:13.810Z,0.60
2022-07-28T17:15:44.144Z,0.75
2022-07-28T17:18:14.476Z,0.60
2022-07-28T17:20:49.470Z,0.50
2022-07-28T17:23:19.910Z,0.50
2022-07-28T17:26:21.221Z,0.80
2022-07-28T17:28:40.995Z,0.63
2022-07-28T17:31:11.488Z,0.65
2022-07-28T17:33:41.879Z,0.88
2022-07-28T17:36:12.361Z,0.80
2022-07-28T17:38:42.541Z,0.70
2022-07-28T17:41:12.994Z,0.60
2022-07-28T17:43:45.612Z,0.70
2022-07-28T17:46:16.216Z,0.70
2022-07-28T17:48:51.695Z,0.60
2022-07-28T17:51:22.649Z,0.57
2022-07-28T17:53:56.267Z,0.60
2022-07-28T17:56:26.597Z,0.80
2022-07-28T17:58:56.823Z,0.80
2022-07-28T18:01:27.175Z,0.77
2022-07-28T18:04:00.861Z,0.85
2022-07-28T18:06:36.068Z,0.60
2022-07-28T18:09:09.257Z,0.90
2022-07-28T18:11:57.821Z,1.20
2022-07-28T18:14:33.062Z,0.80
2022-07-28T18:17:03.622Z,0.88
2022-07-28T18:19:33.770Z,0.88
2022-07-28T18:22:04.122Z,1.10
2022-07-28T18:24:34.359Z,0.80
2022-07-28T18:27:04.822Z,0.70
2022-07-28T18:29:38.191Z,1.10
2022-07-28T18:32:10.536Z,0.97
2022-07-28T18:34:42.858Z,0.90
2022-07-28T18:37:14.709Z,0.90
2022-07-28T18:39:45.032Z,0.90
2022-07-28T18:42:15.555Z,0.97
2022-07-28T18:44:45.873Z,0.85
2022-07-28T18:47:16.116Z,0.95
2022-07-28T18:49:46.366Z,0.77
2022-07-28T18:52:16.749Z,1.17
2022-07-28T18:54:47.001Z,0.87
2022-07-28T18:57:17.957Z,1.10
2022-07-28T18:59:52.073Z,0.80
2022-07-28T19:02:23.232Z,1.00
2022-07-28T19:04:56.875Z,1.27
2022-07-28T19:07:27.293Z,0.68
2022-07-28T19:09:57.575Z,1.10
2022-07-28T19:12:30.870Z,0.93
2022-07-28T19:15:01.865Z,1.17
2022-07-28T19:17:32.356Z,0.93
2022-07-28T19:20:02.868Z,0.93
2022-07-28T19:22:33.455Z,0.90
2022-07-28T19:25:04.736Z,0.90
2022-07-28T19:27:36.188Z,1.27
2022-07-28T19:30:11.081Z,1.27
2022-07-28T19:32:43.527Z,0.90
2022-07-28T19:35:15.263Z,0.90
2022-07-28T19:37:45.804Z,1.00
2022-07-28T19:40:16.044Z,0.97
2022-07-28T19:42:46.496Z,1.20
2022-07-28T19:45:16.776Z,0.87
2022-07-28T19:47:47.172Z,0.70
2022-07-28T19:50:20.429Z,1.20
2022-07-28T19:52:51.138Z,1.20
2022-07-28T19:55:21.449Z,0.90
2022-07-28T19:57:52.064Z,0.90
2022-07-28T20:00:22.304Z,1.00
2022-07-28T20:02:52.715Z,0.90
2022-07-28T20:05:22.993Z,1.20
2022-07-28T20:07:53.498Z,0.90
2022-07-28T20:10:24.006Z,1.10
2022-07-28T20:12:54.457Z,1.00
2022-07-28T20:15:25.002Z,1.00
2022-07-28T20:17:55.625Z,1.07
2022-07-28T20:20:26.337Z,1.17
2022-07-28T20:22:56.856Z,1.17
2022-07-28T20:25:27.290Z,1.10
2022-07-28T20:27:58.701Z,0.90
2022-07-28T20:30:29.217Z,1.00
2022-07-28T20:32:59.723Z,1.03
2022-07-28T20:35:30.335Z,0.90
2022-07-28T20:38:01.752Z,0.90
2022-07-28T20:40:32.035Z,1.00
2022-07-28T20:43:03.053Z,0.60
2022-07-28T20:45:33.449Z,0.80
2022-07-28T20:48:04.115Z,1.20
2022-07-28T20:50:34.345Z,1.00
2022-07-28T20:53:10.169Z,1.00
2022-07-28T20:55:40.793Z,1.10
2022-07-28T20:58:11.552Z,0.97
2022-07-28T21:00:42.648Z,1.00
2022-07-28T21:03:12.843Z,1.10
2022-07-28T21:05:43.171Z,1.20
2022-07-28T21:08:16.179Z,0.90
2022-07-28T21:10:47.588Z,0.80
2022-07-28T21:13:17.927Z,1.10
2022-07-28T21:15:48.151Z,0.80
2022-07-28T21:18:20.070Z,0.60
2022-07-28T21:20:50.314Z,1.10
2022-07-28T21:23:20.709Z,0.80
2022-07-28T21:25:52.692Z,0.93
2022-07-28T21:28:41.028Z,0.70
2022-07-28T21:31:13.798Z,0.63
2022-07-28T21:33:44.125Z,1.03
2022-07-28T21:36:14.395Z,0.80
2022-07-28T21:38:44.754Z,0.60
2022-07-28T21:41:15.188Z,0.80
2022-07-28T21:43:45.553Z,0.80
2022-07-28T21:46:15.793Z,0.83
2022-07-28T21:48:46.595Z,1.23
2022-07-28T21:51:19.434Z,1.50
2022-07-28T21:53:53.275Z,1.20
2022-07-28T21:56:24.516Z,0.97
2022-07-28T21:58:54.929Z,1.00
2022-07-28T22:01:25.669Z,0.80
2022-07-28T22:03:57.025Z,0.80
2022-07-28T22:06:27.734Z,0.80
2022-07-28T22:08:58.675Z,0.70
2022-07-28T22:11:28.989Z,0.82
2022-07-28T22:13:59.358Z,0.93
2022-07-28T22:16:29.667Z,1.10
2022-07-28T22:18:59.996Z,0.70
2022-07-28T22:21:30.762Z,0.80
2022-07-28T22:24:01.185Z,0.90
2022-07-28T22:26:31.431Z,0.73
2022-07-28T22:29:01.861Z,0.80
2022-07-28T22:31:32.077Z,1.00
2022-07-28T22:34:02.492Z,0.80
2022-07-28T22:36:32.837Z,1.00
2022-07-28T22:39:03.390Z,0.68
2022-07-28T22:41:33.765Z,0.77
2022-07-28T22:44:04.328Z,1.00
2022-07-28T22:46:36.735Z,0.70
2022-07-28T22:49:07.410Z,0.88
2022-07-28T22:51:37.799Z,0.70
2022-07-28T22:54:08.193Z,0.90
2022-07-28T22:56:38.499Z,0.60
2022-07-28T22:59:09.522Z,0.73
2022-07-28T23:01:40.236Z,0.55
2022-07-28T23:04:11.441Z,0.50
2022-07-28T23:06:44.718Z,0.68
2022-07-28T23:09:15.249Z,0.85
2022-07-28T23:11:55.628Z,0.80
2022-07-28T23:14:26.515Z,0.90
2022-07-28T23:16:57.074Z,0.93
2022-07-28T23:19:27.574Z,0.82
2022-07-28T23:21:58.070Z,1.00
2022-07-28T23:24:28.401Z,0.93
2022-07-28T23:26:58.812Z,0.90
2022-07-28T23:29:29.317Z,0.82
2022-07-28T23:31:59.633Z,0.60
2022-07-28T23:34:30.889Z,0.60
2022-07-28T23:37:01.392Z,0.70
2022-07-28T23:39:32.639Z,0.75
2022-07-28T23:42:02.857Z,0.65
2022-07-28T23:44:33.264Z,0.60
2022-07-28T23:47:03.756Z,0.57
2022-07-28T23:49:34.586Z,0.80
2022-07-28T23:52:05.046Z,0.60
2022-07-28T23:54:35.481Z,0.60
2022-07-28T23:57:07.494Z,0.80
2022-07-28T23:59:37.783Z,0.70
